Time;durP1;ratioP1;P1;durP2;ratioP2;P2;SDS_P1;SDS_P2;PMS_P1;PMS_P2;Temp;Humidity;BMP_temperature;BMP_pressure;BME280_temperature;BME280_humidity;BME280_pressure;Samples;Min_cycle;Max_cycle;Signal;HPM_P1;HPM_P2
2022/02/02 00:01:43;;;;;;;5.72;3.00;;;8.60;99.90;;;;;;5056246;28;20236;-89
2022/02/02 00:04:14;;;;;;;4.32;2.50;;;8.70;99.90;;;;;;5056647;28;20198;-89
2022/02/02 00:06:46;;;;;;;4.68;2.83;;;8.70;99.90;;;;;;5059341;28;20187;-89
2022/02/02 00:09:17;;;;;;;6.93;3.00;;;8.70;99.90;;;;;;5061066;28;20205;-89
2022/02/02 00:14:51;;;;;;;5.32;2.58;;;8.70;99.90;;;;;;4988418;28;20185;-89
2022/02/02 00:17:31;;;;;;;6.32;3.45;;;8.80;99.90;;;;;;5057336;28;20214;-88
2022/02/02 00:20:06;;;;;;;5.10;2.90;;;8.80;99.90;;;;;;5061095;28;20260;-87
2022/02/02 00:22:37;;;;;;;7.20;2.83;;;8.90;99.90;;;;;;5068276;28;20186;-89
2022/02/02 00:25:13;;;;;;;4.47;2.50;;;8.90;99.90;;;;;;5057491;28;20240;-88
2022/02/02 00:27:42;;;;;;;9.10;3.38;;;8.90;99.90;;;;;;5057301;28;20248;-88
2022/02/02 00:30:15;;;;;;;6.28;2.53;;;8.90;99.90;;;;;;5060048;28;20228;-89
2022/02/02 00:32:57;;;;;;;6.50;2.90;;;8.80;99.90;;;;;;5057800;28;20206;-88
2022/02/02 00:35:29;;;;;;;4.97;2.93;;;8.80;99.90;;;;;;5058258;28;20473;-89
2022/02/02 00:37:56;;;;;;;5.70;2.43;;;8.90;99.90;;;;;;5059602;28;20468;-88
2022/02/02 00:40:27;;;;;;;5.33;2.37;;;9.00;99.90;;;;;;5068376;28;20877;-88
2022/02/02 00:42:54;;;;;;;4.60;2.03;;;8.80;99.90;;;;;;5058820;28;20467;-88
2022/02/02 00:45:24;;;;;;;7.13;2.57;;;8.90;99.90;;;;;;5058456;28;20491;-88
2022/02/02 00:47:54;;;;;;;5.03;2.10;;;8.80;99.90;;;;;;5056564;28;20479;-90
2022/02/02 00:50:21;;;;;;;4.88;1.83;;;8.80;99.90;;;;;;5056330;28;20226;-89
2022/02/02 00:52:51;;;;;;;3.43;1.50;;;8.90;99.90;;;;;;5060729;28;20220;-88
2022/02/02 00:55:19;;;;;;;6.60;2.35;;;8.70;99.90;;;;;;5060539;28;20484;-89
2022/02/02 00:57:47;;;;;;;4.47;1.93;;;8.80;99.90;;;;;;5060367;28;20225;-88
2022/02/02 01:00:15;;;;;;;8.25;1.88;;;8.80;99.90;;;;;;5060383;28;20493;-88
2022/02/02 01:02:42;;;;;;;4.38;2.40;;;8.90;99.90;;;;;;5060478;28;20222;-88
2022/02/02 01:05:09;;;;;;;4.40;1.67;;;9.00;99.90;;;;;;5060233;28;20203;-89
2022/02/02 01:07:58;;;;;;;8.20;1.93;;;9.00;99.90;;;;;;5059076;28;20518;-87
2022/02/02 01:10:30;;;;;;;4.28;1.50;;;8.90;99.90;;;;;;5059976;28;20473;-88
2022/02/02 01:13:19;;;;;;;7.80;1.90;;;9.10;99.90;;;;;;5063205;28;20198;-87
2022/02/02 01:18:35;;;;;;;4.88;1.85;;;9.00;99.90;;;;;;5058676;28;20272;-88
2022/02/02 01:21:04;;;;;;;4.72;1.80;;;9.20;99.90;;;;;;5058788;28;20226;-89
2022/02/02 01:29:03;;;;;;;7.20;1.70;;;9.10;99.90;;;;;;5061570;28;20236;-89
2022/02/02 01:31:30;;;;;;;7.38;2.10;;;9.30;99.90;;;;;;5068121;28;20237;-88
2022/02/02 01:33:57;;;;;;;4.23;1.70;;;9.30;99.90;;;;;;5074438;28;20212;-87
2022/02/02 01:36:24;;;;;;;3.50;1.63;;;9.30;99.90;;;;;;5080877;28;20477;-88
2022/02/02 01:38:53;;;;;;;7.57;2.10;;;9.30;99.90;;;;;;5080334;28;20429;-88
2022/02/02 01:41:30;;;;;;;5.50;1.83;;;9.40;99.90;;;;;;5065048;28;20455;-90
2022/02/02 01:44:05;;;;;;;6.93;2.07;;;9.40;99.90;;;;;;5061417;28;20498;-89
2022/02/02 01:46:35;;;;;;;5.20;1.70;;;9.40;99.90;;;;;;5060040;28;20501;-89
2022/02/02 01:49:59;;;;;;;4.30;1.73;;;9.20;99.90;;;;;;5060205;28;20437;-89
2022/02/02 01:52:21;;;;;;;5.00;1.50;;;9.20;99.90;;;;;;5058283;28;20469;-88
2022/02/02 01:54:57;;;;;;;4.60;1.70;;;9.10;99.90;;;;;;5059774;28;20456;-89
2022/02/02 01:57:48;;;;;;;4.07;1.50;;;9.10;99.90;;;;;;5059845;28;20547;-90
2022/02/02 02:00:16;;;;;;;4.43;2.63;;;9.20;99.90;;;;;;5058308;28;20457;-89
2022/02/02 02:02:44;;;;;;;5.90;1.73;;;9.30;99.90;;;;;;5058587;28;20453;-89
2022/02/02 02:05:14;;;;;;;3.27;1.70;;;9.40;99.90;;;;;;5062014;28;20476;-89
2022/02/02 02:07:41;;;;;;;4.40;1.55;;;9.40;99.90;;;;;;5058392;28;20465;-89
2022/02/02 02:10:11;;;;;;;5.20;2.00;;;9.50;99.90;;;;;;5059213;28;20226;-89
2022/02/02 02:12:47;;;;;;;5.73;2.77;;;9.50;99.90;;;;;;5059412;28;20448;-89
2022/02/02 02:15:16;;;;;;;7.97;2.17;;;9.50;99.90;;;;;;5063012;28;20437;-90
2022/02/02 02:17:46;;;;;;;4.87;2.40;;;9.50;99.90;;;;;;5063466;28;20479;-89
2022/02/02 02:20:13;;;;;;;6.50;2.40;;;9.50;99.90;;;;;;5058504;28;20453;-89
2022/02/02 02:22:43;;;;;;;5.07;2.22;;;9.40;99.90;;;;;;5069696;28;20214;-89
2022/02/02 02:25:10;;;;;;;5.20;2.43;;;9.60;99.90;;;;;;5066732;28;20229;-89
2022/02/02 02:27:38;;;;;;;6.13;2.10;;;9.60;99.90;;;;;;5059868;28;20478;-89
2022/02/02 02:30:15;;;;;;;7.20;3.15;;;9.50;99.90;;;;;;5058713;28;20218;-90
2022/02/02 02:33:10;;;;;;;7.07;2.78;;;9.50;99.90;;;;;;5059123;28;20654;-88
2022/02/02 02:35:57;;;;;;;5.93;2.80;;;9.60;99.90;;;;;;5059612;28;20222;-88
2022/02/02 02:38:53;;;;;;;7.88;3.55;;;9.60;99.90;;;;;;5064086;28;20864;-88
2022/02/02 02:58:02;;;;;;;8.60;4.00;;;9.60;99.90;;;;;;5064847;28;20492;-89
2022/02/02 03:00:40;;;;;;;10.30;4.07;;;9.70;99.90;;;;;;5069682;28;20209;-88
2022/02/02 03:50:12;;;;;;;11.43;3.30;;;9.50;99.90;;;;;;5177435;27;20520;-85
2022/02/02 04:03:10;;;;;;;7.63;3.33;;;9.40;99.90;;;;;;5084723;27;20473;-85
2022/02/02 04:08:56;;;;;;;9.65;3.40;;;9.40;99.90;;;;;;5175698;27;20179;-85
2022/02/02 04:11:57;;;;;;;8.77;2.88;;;9.50;99.90;;;;;;5173954;27;20271;-85
2022/02/02 05:06:06;;;;;;;14.77;3.40;;;9.30;99.90;;;;;;5080491;28;20425;-85
2022/02/02 05:08:45;;;;;;;17.45;3.00;;;9.40;99.90;;;;;;5078997;28;20444;-87
2022/02/02 05:50:35;;;;;;;12.90;4.00;;;9.00;99.90;;;;;;5079444;28;20209;-86
2022/02/02 05:53:24;;;;;;;12.77;4.50;;;9.10;99.90;;;;;;5125835;22;20245;-82
2022/02/02 05:56:29;;;;;;;8.37;2.87;;;9.00;99.90;;;;;;5079904;28;20503;-85
2022/02/02 05:59:21;;;;;;;10.50;3.45;;;9.10;99.90;;;;;;5076508;28;20447;-87
2022/02/02 06:01:51;;;;;;;14.35;3.10;;;9.10;99.90;;;;;;5080420;28;20210;-84
2022/02/02 06:04:31;;;;;;;9.73;3.70;;;9.20;99.90;;;;;;5079312;28;20183;-87
2022/02/02 06:07:20;;;;;;;10.18;2.20;;;9.10;99.90;;;;;;5077375;28;20439;-85
2022/02/02 06:10:07;;;;;;;9.30;2.70;;;9.20;99.90;;;;;;5074075;28;20213;-87
2022/02/02 06:16:01;;;;;;;8.25;2.50;;;9.20;99.90;;;;;;5072653;28;20213;-84
2022/02/02 06:18:46;;;;;;;11.07;3.05;;;9.20;99.90;;;;;;5067965;28;20214;-86
2022/02/02 06:21:21;;;;;;;6.63;2.55;;;9.20;99.90;;;;;;5071462;28;20249;-86
2022/02/02 06:23:55;;;;;;;12.10;3.33;;;9.30;99.90;;;;;;5070233;28;20174;-87
2022/02/02 06:26:25;;;;;;;10.38;2.97;;;9.20;99.90;;;;;;5071681;28;20269;-87
2022/02/02 06:29:09;;;;;;;11.55;3.00;;;9.30;99.90;;;;;;5074466;28;20186;-86
2022/02/02 06:31:44;;;;;;;13.23;3.53;;;9.30;99.90;;;;;;5075017;28;20222;-86
2022/02/02 06:37:47;;;;;;;11.40;3.22;;;9.30;99.90;;;;;;5385608;22;20237;-87
2022/02/02 06:40:16;;;;;;;9.90;3.65;;;9.30;99.90;;;;;;5070708;28;20665;-85
2022/02/02 06:42:44;;;;;;;12.40;3.47;;;9.40;99.90;;;;;;5071991;28;20226;-87
2022/02/02 06:45:18;;;;;;;8.93;3.05;;;9.40;99.90;;;;;;5073016;28;20456;-86
2022/02/02 06:47:45;;;;;;;13.15;2.75;;;9.40;99.90;;;;;;5067271;28;20210;-88
2022/02/02 06:50:17;;;;;;;7.45;3.28;;;9.40;99.90;;;;;;5066711;28;20257;-88
2022/02/02 06:52:55;;;;;;;11.38;3.13;;;9.40;99.90;;;;;;5066158;28;20229;-86
2022/02/02 06:55:30;;;;;;;13.18;3.72;;;9.30;99.90;;;;;;5066484;28;20194;-88
2022/02/02 06:58:12;;;;;;;9.80;3.00;;;9.40;99.90;;;;;;5066568;28;20216;-87
2022/02/02 07:00:56;;;;;;;8.27;3.83;;;9.50;99.90;;;;;;5066579;28;20698;-86
2022/02/02 07:03:42;;;;;;;5.13;2.15;;;9.40;99.90;;;;;;5064936;28;20274;-87
2022/02/02 07:06:22;;;;;;;10.67;3.00;;;9.40;99.90;;;;;;5068656;28;20262;-86
2022/02/02 07:09:10;;;;;;;6.53;2.13;;;9.30;99.90;;;;;;5063797;28;20445;-88
2022/02/02 07:11:54;;;;;;;12.70;3.80;;;9.30;99.90;;;;;;5069100;28;20314;-86
2022/02/02 07:14:30;;;;;;;8.73;3.00;;;9.30;99.90;;;;;;5070970;28;20897;-87
2022/02/02 07:17:11;;;;;;;12.00;3.70;;;9.30;99.90;;;;;;5071090;28;20204;-87
2022/02/02 07:19:51;;;;;;;17.60;4.40;;;9.20;99.90;;;;;;5064510;28;20220;-87
2022/02/02 07:22:42;;;;;;;8.50;3.53;;;9.20;99.90;;;;;;5064822;28;20504;-86
2022/02/02 07:25:36;;;;;;;14.43;4.37;;;9.40;99.90;;;;;;5074142;28;20451;-87
2022/02/02 07:28:12;;;;;;;11.68;4.00;;;9.30;99.90;;;;;;5065581;28;20615;-87
2022/02/02 07:30:51;;;;;;;10.57;3.13;;;9.40;99.90;;;;;;5065250;28;20229;-87
2022/02/02 07:33:49;;;;;;;15.50;3.50;;;9.50;99.90;;;;;;5067419;28;20479;-88
2022/02/02 07:36:37;;;;;;;13.27;3.10;;;9.40;99.90;;;;;;5074302;28;20436;-89
2022/02/02 07:39:07;;;;;;;12.20;3.25;;;9.50;99.90;;;;;;5071594;28;20486;-87
2022/02/02 07:41:46;;;;;;;10.82;3.33;;;9.60;99.90;;;;;;5064584;28;20226;-87
2022/02/02 07:44:18;;;;;;;14.73;3.80;;;9.50;99.90;;;;;;5065114;28;20630;-87
2022/02/02 07:46:47;;;;;;;10.17;2.77;;;9.50;99.90;;;;;;5066474;28;20520;-87
2022/02/02 07:49:17;;;;;;;13.37;4.10;;;9.40;99.90;;;;;;5064022;28;20526;-87
2022/02/02 07:51:50;;;;;;;10.73;3.30;;;9.50;99.90;;;;;;5063812;28;20575;-87
2022/02/02 07:54:23;;;;;;;14.95;4.63;;;9.50;99.90;;;;;;5062966;28;20437;-87
2022/02/02 07:56:57;;;;;;;12.48;4.05;;;9.40;99.90;;;;;;5062742;28;20203;-88
2022/02/02 07:59:34;;;;;;;14.15;4.00;;;9.30;99.90;;;;;;5063078;28;20348;-87
2022/02/02 08:02:05;;;;;;;11.50;4.20;;;9.30;99.90;;;;;;5061814;28;20225;-87
2022/02/02 08:04:32;;;;;;;16.52;3.92;;;9.40;99.90;;;;;;5064347;28;20531;-87
2022/02/02 08:06:59;;;;;;;9.27;4.03;;;9.40;99.90;;;;;;5065160;28;20214;-89
2022/02/02 08:09:32;;;;;;;14.60;5.57;;;9.30;99.90;;;;;;5063191;28;20646;-86
2022/02/02 08:12:02;;;;;;;12.60;3.13;;;9.40;99.90;;;;;;5063010;28;20496;-87
2022/02/02 08:14:31;;;;;;;12.30;4.53;;;9.50;99.90;;;;;;5063368;28;20468;-87
2022/02/02 08:16:58;;;;;;;13.30;4.40;;;9.40;99.90;;;;;;5063780;28;20222;-89
2022/02/02 08:19:26;;;;;;;11.57;3.80;;;9.30;99.90;;;;;;5069427;28;20198;-87
2022/02/02 08:21:53;;;;;;;10.32;2.38;;;9.40;99.90;;;;;;5068067;28;20484;-86
2022/02/02 08:24:20;;;;;;;10.45;3.40;;;9.50;99.90;;;;;;5065555;28;20693;-87
2022/02/02 08:26:50;;;;;;;9.05;3.80;;;9.40;99.90;;;;;;5066713;28;20214;-87
2022/02/02 08:29:18;;;;;;;15.10;4.30;;;9.50;99.90;;;;;;5067744;28;20221;-87
2022/02/02 08:31:46;;;;;;;16.80;4.47;;;9.30;99.90;;;;;;5064984;28;20564;-87
2022/02/02 08:34:14;;;;;;;12.45;3.25;;;9.40;99.90;;;;;;5068288;28;20467;-86
2022/02/02 08:36:44;;;;;;;10.50;4.20;;;9.30;99.90;;;;;;5069448;28;20194;-88
2022/02/02 08:39:24;;;;;;;8.80;3.58;;;9.10;99.90;;;;;;5069841;28;20312;-87
2022/02/02 08:41:57;;;;;;;12.20;4.17;;;9.20;99.90;;;;;;5064874;28;20317;-88
2022/02/02 08:44:29;;;;;;;11.35;4.20;;;9.20;99.90;;;;;;5066663;28;20429;-86
2022/02/02 08:47:00;;;;;;;8.53;3.70;;;9.30;99.90;;;;;;5065322;28;20252;-87
2022/02/02 08:49:30;;;;;;;12.75;4.25;;;9.10;99.90;;;;;;5066419;28;20467;-87
2022/02/02 08:51:58;;;;;;;14.20;4.20;;;9.00;99.90;;;;;;5067616;28;20226;-87
2022/02/02 08:54:31;;;;;;;14.93;4.50;;;9.00;99.90;;;;;;5065274;28;20543;-87
2022/02/02 08:59:58;;;;;;;13.50;5.37;;;9.10;99.90;;;;;;5019220;28;20433;-88
2022/02/02 09:02:29;;;;;;;14.33;5.00;;;9.20;99.90;;;;;;5067299;28;20468;-87
2022/02/02 09:07:41;;;;;;;11.82;4.35;;;9.10;99.90;;;;;;5077827;28;20256;-88
2022/02/02 09:10:13;;;;;;;9.47;4.20;;;9.20;99.90;;;;;;5069520;28;20212;-88
2022/02/02 09:33:32;;;;;;;;;;;;;;;;;;;;;
2022/02/02 09:43:25;;;;;;;18.70;5.33;;;9.80;99.90;;;;;;4897281;28;20462;-88
2022/02/02 13:09:00;;;;;;;10.87;3.33;;;11.10;99.90;;;;;;5065984;22;20478;-88
2022/02/02 13:15:51;;;;;;;;;;;;;;;;;;;;;
2022/02/02 13:50:25;;;;;;;7.07;2.77;;;10.00;99.90;;;;;;4769662;29;20508;-88
2022/02/02 14:00:32;;;;;;;5.10;2.30;;;9.90;99.90;;;;;;4956441;28;20511;-89
2022/02/02 15:28:46;;;;;;;9.57;3.83;;;9.90;99.90;;;;;;5087639;28;20454;-88
2022/02/02 15:31:15;;;;;;;8.60;3.60;;;9.90;99.90;;;;;;5093205;28;20463;-88
2022/02/02 15:33:58;;;;;;;10.50;3.37;;;9.90;99.90;;;;;;5088306;28;20451;-90
2022/02/02 15:39:15;;;;;;;8.30;3.40;;;9.80;99.90;;;;;;5068189;28;20418;-87
2022/02/02 15:42:01;;;;;;;9.63;4.10;;;9.60;99.90;;;;;;5090002;28;20437;-87
2022/02/02 15:58:40;;;;;;;11.80;3.60;;;9.80;99.90;;;;;;5085446;28;20459;-87
2022/02/02 16:04:12;;;;;;;9.27;3.10;;;9.60;99.90;;;;;;5050907;28;20424;-88
2022/02/02 16:06:44;;;;;;;8.00;3.80;;;9.60;99.90;;;;;;5086756;28;20493;-87
2022/02/02 16:09:22;;;;;;;8.50;3.50;;;9.60;99.90;;;;;;5089883;28;20943;-88
2022/02/02 16:12:06;;;;;;;10.23;4.07;;;9.80;99.90;;;;;;5094873;28;20525;-88
2022/02/02 16:14:47;;;;;;;9.20;3.50;;;9.70;99.90;;;;;;5092678;28;20502;-88
2022/02/02 16:31:38;;;;;;;7.17;3.40;;;9.60;99.90;;;;;;5085345;28;20221;-88
2022/02/02 16:37:30;;;;;;;7.03;3.07;;;9.50;99.90;;;;;;5144167;27;20695;-88
2022/02/02 16:40:16;;;;;;;10.70;3.70;;;9.40;99.90;;;;;;5122755;28;20441;-88
2022/02/02 16:49:15;;;;;;;13.60;4.23;;;9.30;99.90;;;;;;5052848;28;20516;-89
2022/02/02 16:51:53;;;;;;;6.70;2.40;;;9.40;99.90;;;;;;5100498;28;20457;-88
2022/02/02 16:54:26;;;;;;;8.67;3.17;;;9.40;99.90;;;;;;5103701;28;20475;-89
2022/02/02 16:57:07;;;;;;;7.43;3.30;;;9.50;99.90;;;;;;5102037;28;20480;-87
2022/02/02 17:30:13;;;;;;;4.63;2.80;;;9.80;99.90;;;;;;5101555;28;20420;-86
2022/02/02 17:32:48;;;;;;;10.50;2.90;;;9.70;99.90;;;;;;5101005;28;20456;-86
2022/02/02 17:35:34;;;;;;;5.90;2.70;;;9.60;99.90;;;;;;5099170;28;20476;-87
2022/02/02 17:38:09;;;;;;;7.80;4.37;;;9.60;99.90;;;;;;5099569;28;20478;-87
2022/02/02 17:56:02;;;;;;;7.70;3.50;;;9.50;99.90;;;;;;5095592;28;20998;-87
2022/02/02 18:17:13;;;;;;;9.30;6.10;;;9.10;99.90;;;;;;5086174;28;20494;-87
2022/02/02 18:19:16;;;;;;;10.07;5.80;;;9.10;99.90;;;;;;5087238;28;20534;-86
2022/02/02 18:21:43;;;;;;;7.57;4.73;;;9.10;99.90;;;;;;5088984;28;20449;-87
2022/02/02 18:24:15;;;;;;;8.70;4.63;;;9.10;99.90;;;;;;5088474;28;20463;-89
2022/02/02 18:26:48;;;;;;;7.10;3.87;;;9.10;99.90;;;;;;5089587;28;20512;-88
2022/02/02 18:29:20;;;;;;;8.52;4.68;;;9.10;99.90;;;;;;5091294;28;20432;-88
2022/02/02 18:32:11;;;;;;;7.90;5.03;;;9.10;99.90;;;;;;5088890;28;20230;-88
2022/02/02 18:34:44;;;;;;;9.20;6.10;;;9.00;99.90;;;;;;5091605;28;20455;-88
2022/02/02 18:37:54;;;;;;;9.00;5.15;;;9.00;99.90;;;;;;5087929;28;20540;-87
2022/02/02 18:46:18;;;;;;;9.17;6.20;;;8.80;99.90;;;;;;5089104;28;20459;-87
2022/02/02 18:48:52;;;;;;;9.93;6.70;;;8.80;99.90;;;;;;5097321;28;20435;-87
2022/02/02 18:54:17;;;;;;;8.43;4.63;;;8.80;99.90;;;;;;5084963;28;20598;-87
2022/02/02 18:57:07;;;;;;;18.33;7.07;;;8.70;99.90;;;;;;5086501;28;20213;-88
2022/02/02 18:59:53;;;;;;;9.82;5.80;;;8.70;99.90;;;;;;5088748;28;20213;-88
2022/02/02 19:02:40;;;;;;;12.55;7.03;;;8.70;99.90;;;;;;5088643;28;20250;-87
2022/02/02 19:05:31;;;;;;;10.55;5.90;;;8.60;99.90;;;;;;5086556;28;20241;-87
2022/02/02 19:08:14;;;;;;;8.00;5.17;;;8.50;99.90;;;;;;5087249;28;20258;-87
2022/02/02 20:03:38;;;;;;;10.60;6.53;;;7.70;99.90;;;;;;5083684;28;20180;-87
2022/02/02 20:06:18;;;;;;;9.20;5.70;;;7.70;99.90;;;;;;5082421;28;20651;-87
2022/02/02 20:08:58;;;;;;;8.95;5.68;;;7.70;99.90;;;;;;5086904;28;20202;-88
2022/02/02 20:11:28;;;;;;;12.07;6.30;;;7.70;99.90;;;;;;5085758;28;20201;-86
2022/02/02 20:13:55;;;;;;;7.70;5.32;;;7.70;99.90;;;;;;5085596;28;20580;-86
2022/02/02 20:16:22;;;;;;;11.05;6.43;;;7.50;99.90;;;;;;5088496;28;20244;-87
2022/02/02 20:18:51;;;;;;;10.25;6.47;;;7.60;99.90;;;;;;5094423;28;20201;-87
2022/02/02 20:21:23;;;;;;;10.45;6.25;;;7.60;99.90;;;;;;5088330;28;20205;-86
2022/02/02 20:23:51;;;;;;;9.63;6.05;;;7.30;99.90;;;;;;5093809;28;20220;-87
2022/02/02 20:26:24;;;;;;;9.55;5.57;;;7.30;99.90;;;;;;5086978;28;20201;-87
2022/02/02 20:28:52;;;;;;;9.88;6.60;;;7.40;99.90;;;;;;5083185;28;20208;-87
2022/02/02 20:31:22;;;;;;;11.07;6.57;;;7.40;99.90;;;;;;5083845;28;20201;-86
2022/02/02 20:33:49;;;;;;;9.98;6.00;;;7.40;99.90;;;;;;5084598;28;20194;-87
2022/02/02 20:36:17;;;;;;;10.45;5.50;;;7.50;99.90;;;;;;5084301;28;20229;-87
2022/02/02 20:38:44;;;;;;;10.10;7.15;;;7.50;99.90;;;;;;5084275;28;20206;-87
2022/02/02 20:41:11;;;;;;;8.98;5.70;;;7.50;99.90;;;;;;5086997;28;20228;-87
2022/02/02 20:43:48;;;;;;;11.15;6.63;;;7.60;99.90;;;;;;5085178;28;20396;-86
2022/02/02 20:46:37;;;;;;;9.63;6.40;;;7.60;99.90;;;;;;5085533;28;20273;-86
2022/02/02 21:01:04;;;;;;;9.60;6.22;;;7.30;99.90;;;;;;5094996;28;20200;-86
2022/02/02 21:03:39;;;;;;;9.65;6.05;;;7.70;99.90;;;;;;5093358;28;20190;-88
2022/02/02 21:06:20;;;;;;;10.10;6.63;;;7.70;99.90;;;;;;5096215;28;20213;-87
2022/02/02 21:09:09;;;;;;;10.80;6.35;;;7.80;99.90;;;;;;5089549;28;20209;-86
2022/02/02 21:11:57;;;;;;;10.30;6.95;;;7.80;99.90;;;;;;5089046;28;20681;-87
2022/02/02 21:14:36;;;;;;;9.95;6.18;;;7.90;99.90;;;;;;5088076;28;20285;-87
2022/02/02 21:17:06;;;;;;;9.93;6.40;;;7.90;99.90;;;;;;5089815;28;20231;-87
2022/02/02 21:19:49;;;;;;;9.93;6.10;;;7.90;99.90;;;;;;5091650;28;20206;-88
2022/02/02 21:22:17;;;;;;;12.23;6.40;;;7.90;99.90;;;;;;5091359;28;20297;-87
2022/02/02 21:35:57;;;;;;;10.40;6.10;;;7.80;99.90;;;;;;5028209;28;20250;-89
2022/02/02 21:38:32;;;;;;;8.68;5.28;;;7.90;99.90;;;;;;5032425;28;20208;-89
2022/02/02 21:43:46;;;;;;;10.15;5.82;;;7.90;99.90;;;;;;5022892;28;20223;-90
2022/02/02 21:47:09;;;;;;;9.10;5.70;;;8.00;99.90;;;;;;5023467;28;20194;-91
2022/02/02 22:30:14;;;;;;;12.02;6.57;;;8.50;99.90;;;;;;4905310;29;20467;-89
2022/02/02 22:36:13;;;;;;;7.88;5.90;;;8.50;99.90;;;;;;5035419;28;20207;-90
2022/02/02 22:39:26;;;;;;;9.93;5.93;;;8.50;99.90;;;;;;4999271;28;20262;-89
2022/02/02 22:49:06;;;;;;;10.25;6.15;;;8.60;99.90;;;;;;4996637;28;20448;-90
2022/02/02 22:52:45;;;;;;;;;;;;;;;;;;;;;
2022/02/02 23:01:52;;;;;;;;;;;;;;;;;;;;;
2022/02/02 23:04:37;;;;;;;8.90;5.83;;;8.80;99.90;;;;;;5038831;28;20468;-89
2022/02/02 23:07:36;;;;;;;7.73;5.60;;;8.80;99.90;;;;;;5039347;28;20434;-89
2022/02/02 23:11:02;;;;;;;7.67;5.50;;;8.80;99.90;;;;;;5031521;28;20450;-89
2022/02/02 23:13:52;;;;;;;8.67;5.83;;;8.80;99.90;;;;;;5031309;28;20505;-91
2022/02/02 23:17:09;;;;;;;10.23;5.65;;;8.90;99.90;;;;;;5020583;28;20471;-91
2022/02/02 23:20:31;;;;;;;8.00;5.88;;;8.90;99.90;;;;;;4999485;28;20209;-91
2022/02/02 23:23:42;;;;;;;11.30;5.93;;;8.90;99.90;;;;;;4958358;28;20604;-89
2022/02/02 23:26:39;;;;;;;9.13;5.65;;;8.90;99.90;;;;;;4988451;28;20216;-89
2022/02/02 23:29:09;;;;;;;8.40;5.83;;;8.90;99.90;;;;;;5019178;28;20213;-90
2022/02/02 23:35:19;;;;;;;11.18;6.93;;;9.00;99.90;;;;;;5020516;28;20223;-89
2022/02/02 23:38:00;;;;;;;10.00;6.40;;;9.00;99.90;;;;;;5017720;28;20282;-89
2022/02/02 23:55:12;;;;;;;8.67;6.20;;;8.90;99.90;;;;;;5041924;28;20462;-89
